Weather at Khrabrovo Airport

Public forecast

Using degrees Celsius for public forecast. Weather courtesy of forecast.io.

Current aviation weather report (METAR) for Khrabrovo Airport

2024/04/23 11:00 (retrieved 28 minutes ago)

UMKK 231100Z 26006MPS 9999 BKN022 04/01 Q1019 R24/290095 NOSIG RMK QFE763/1017

Aviation forecast (TAF) for Khrabrovo Airport

2024/04/23 09:21 (retrieved 2 hours ago)

TAF UMKK 230757Z 2309/2409 24006G11MPS 6000 FEW010 BKN016CB BECMG 2314/2316 VRB01MPS BECMG 2319/2321 15003G10MPS BECMG 2404/2406 VRB01MPS